Time;durP1;ratioP1;P1;durP2;ratioP2;P2;SDS_P1;SDS_P2;PMS_P1;PMS_P2;Temp;Humidity;BMP_temperature;BMP_pressure;BME280_temperature;BME280_humidity;BME280_pressure;Samples;Min_cycle;Max_cycle;Signal;HPM_P1;HPM_P2
2023/08/04 00:00:13;;;;;;;37.95;21.80;;;14.70;99.90;;;;;;5018111;28;20191;-78
2023/08/04 00:02:39;;;;;;;42.45;22.65;;;14.70;99.90;;;;;;5036494;28;20257;-79
2023/08/04 00:05:06;;;;;;;39.92;21.73;;;14.70;99.90;;;;;;5036616;28;20241;-79
2023/08/04 00:07:33;;;;;;;34.67;20.60;;;14.70;99.90;;;;;;5035350;28;20226;-78
2023/08/04 00:09:59;;;;;;;33.72;20.17;;;14.70;99.90;;;;;;5013927;28;20293;-79
2023/08/04 00:12:25;;;;;;;33.55;20.45;;;14.60;99.90;;;;;;5017765;28;20179;-79
2023/08/04 00:14:51;;;;;;;40.65;20.13;;;14.60;99.90;;;;;;5035234;28;20584;-78
2023/08/04 00:17:17;;;;;;;33.85;19.45;;;14.60;99.90;;;;;;5034950;28;20210;-78
2023/08/04 00:19:43;;;;;;;39.22;19.20;;;14.60;99.90;;;;;;5017724;28;20190;-79
2023/08/04 00:22:09;;;;;;;32.90;19.60;;;14.60;99.90;;;;;;5017689;28;20182;-79
2023/08/04 00:24:35;;;;;;;39.22;19.48;;;14.60;99.90;;;;;;5014314;28;20202;-78
2023/08/04 00:27:02;;;;;;;38.15;20.20;;;14.60;99.90;;;;;;5012602;28;20294;-78
2023/08/04 00:29:28;;;;;;;34.95;18.65;;;14.60;99.90;;;;;;5017171;28;20182;-78
2023/08/04 00:31:54;;;;;;;41.38;18.08;;;14.60;99.90;;;;;;5005018;28;20184;-78
2023/08/04 00:34:20;;;;;;;28.67;16.00;;;14.60;99.90;;;;;;5032050;28;20201;-79
2023/08/04 00:36:47;;;;;;;36.67;16.95;;;14.60;99.90;;;;;;5017365;28;20234;-79
2023/08/04 00:39:17;;;;;;;28.60;16.25;;;14.60;99.90;;;;;;5017352;28;20213;-78
2023/08/04 00:41:43;;;;;;;34.10;16.45;;;14.60;99.90;;;;;;5016640;28;20183;-78
2023/08/04 00:44:09;;;;;;;27.25;15.80;;;14.60;99.90;;;;;;5033958;28;20202;-78
2023/08/04 00:46:36;;;;;;;28.88;15.30;;;14.60;99.90;;;;;;5016586;28;20230;-78
2023/08/04 00:49:04;;;;;;;26.95;14.45;;;14.60;99.90;;;;;;5035066;28;20213;-78
2023/08/04 00:51:31;;;;;;;30.05;14.88;;;14.60;99.90;;;;;;5017671;28;20171;-79
2023/08/04 00:53:58;;;;;;;27.85;15.07;;;14.60;99.90;;;;;;5036080;28;20507;-78
2023/08/04 00:56:23;;;;;;;26.95;14.70;;;14.50;99.90;;;;;;5013026;28;20218;-78
2023/08/04 00:58:49;;;;;;;33.83;15.90;;;14.60;99.90;;;;;;4997789;28;20179;-78
2023/08/04 01:01:15;;;;;;;31.88;15.13;;;14.50;99.90;;;;;;5011542;28;20182;-78
2023/08/04 01:03:41;;;;;;;31.88;15.38;;;14.50;99.90;;;;;;5017729;28;20535;-79
2023/08/04 01:06:14;;;;;;;26.77;15.05;;;14.60;99.90;;;;;;5016811;28;20215;-78
2023/08/04 01:08:46;;;;;;;30.20;15.20;;;14.60;99.90;;;;;;5017153;28;20167;-79
2023/08/04 01:11:16;;;;;;;29.17;15.75;;;14.60;99.90;;;;;;5017334;28;20258;-78
2023/08/04 01:13:44;;;;;;;32.17;15.00;;;14.50;99.90;;;;;;5035462;28;20199;-79
2023/08/04 01:16:10;;;;;;;28.33;15.40;;;14.50;99.90;;;;;;5015174;28;20195;-78
2023/08/04 01:18:36;;;;;;;30.45;14.90;;;14.50;99.90;;;;;;5016330;28;20721;-78
2023/08/04 01:21:03;;;;;;;30.90;15.50;;;14.50;99.90;;;;;;5017042;28;20201;-79
2023/08/04 01:23:29;;;;;;;36.92;14.77;;;14.50;99.90;;;;;;5031797;28;20258;-79
2023/08/04 01:25:55;;;;;;;33.92;16.42;;;14.50;99.90;;;;;;5037014;28;20238;-79
2023/08/04 01:28:22;;;;;;;27.58;15.55;;;14.50;99.90;;;;;;5015441;28;20675;-78
2023/08/04 01:30:52;;;;;;;24.92;15.00;;;14.50;99.90;;;;;;5016113;28;20241;-78
2023/08/04 01:33:18;;;;;;;25.65;14.90;;;14.50;99.90;;;;;;4998867;28;20267;-78
2023/08/04 01:35:44;;;;;;;28.33;14.15;;;14.50;99.90;;;;;;5013785;28;20608;-78
2023/08/04 01:38:10;;;;;;;28.83;15.73;;;14.50;99.90;;;;;;5034292;28;20606;-78
2023/08/04 01:40:36;;;;;;;29.45;15.93;;;14.50;99.90;;;;;;5016847;28;20186;-78
2023/08/04 01:43:04;;;;;;;33.65;16.95;;;14.50;99.90;;;;;;5038217;28;20183;-78
2023/08/04 01:45:30;;;;;;;31.10;17.23;;;14.50;99.90;;;;;;5036684;28;20286;-78
2023/08/04 01:47:55;;;;;;;29.17;15.93;;;14.50;99.90;;;;;;5007296;28;20243;-79
2023/08/04 01:50:21;;;;;;;27.23;15.20;;;14.50;99.90;;;;;;5018029;28;20222;-78
2023/08/04 01:52:47;;;;;;;37.00;17.73;;;14.50;99.90;;;;;;5034671;28;20225;-78
2023/08/04 01:55:13;;;;;;;31.40;16.88;;;14.50;99.90;;;;;;5023518;28;20264;-78
2023/08/04 01:57:39;;;;;;;38.13;17.92;;;14.50;99.90;;;;;;5041069;28;20679;-78
2023/08/04 02:00:06;;;;;;;40.17;18.63;;;14.50;99.90;;;;;;5024194;28;20277;-78
2023/08/04 02:02:32;;;;;;;30.42;16.55;;;14.50;99.90;;;;;;5041588;28;20191;-78
2023/08/04 02:04:57;;;;;;;36.28;18.38;;;14.50;99.90;;;;;;5024901;28;20202;-78
2023/08/04 02:07:23;;;;;;;30.65;17.02;;;14.50;99.90;;;;;;5021019;28;20195;-78
2023/08/04 02:09:49;;;;;;;28.00;16.92;;;14.50;99.90;;;;;;5023062;28;20168;-78
2023/08/04 02:12:15;;;;;;;32.75;14.75;;;14.50;99.90;;;;;;5032742;28;20180;-78
2023/08/04 02:14:40;;;;;;;27.23;14.27;;;14.40;99.90;;;;;;5025456;28;20191;-78
2023/08/04 02:17:06;;;;;;;25.42;13.32;;;14.30;99.90;;;;;;5040810;28;20195;-78
2023/08/04 02:19:32;;;;;;;20.33;12.23;;;14.30;99.90;;;;;;5041967;28;20187;-78
2023/08/04 02:21:58;;;;;;;25.83;13.55;;;14.30;99.90;;;;;;5025140;28;20171;-78
2023/08/04 02:24:23;;;;;;;23.95;13.52;;;14.20;99.90;;;;;;5025894;28;20202;-78
2023/08/04 02:26:49;;;;;;;27.23;14.40;;;14.20;99.90;;;;;;5042245;28;20191;-78
2023/08/04 02:29:15;;;;;;;28.73;16.00;;;14.30;99.90;;;;;;5039307;28;20191;-78
2023/08/04 02:31:41;;;;;;;27.85;16.20;;;14.30;99.90;;;;;;5026777;28;20187;-78
2023/08/04 02:34:07;;;;;;;30.75;17.52;;;14.30;99.90;;;;;;5038428;28;20636;-78
2023/08/04 02:36:33;;;;;;;28.10;18.00;;;14.20;99.90;;;;;;5017914;28;20312;-78
2023/08/04 02:38:59;;;;;;;51.83;20.08;;;14.30;99.90;;;;;;5018327;28;20245;-78
2023/08/04 02:41:24;;;;;;;31.83;18.00;;;14.30;99.90;;;;;;5020011;28;20734;-78
2023/08/04 02:43:50;;;;;;;38.42;19.08;;;14.30;99.90;;;;;;5037854;28;20195;-78
2023/08/04 02:46:16;;;;;;;41.90;22.02;;;14.40;99.90;;;;;;5038918;28;20187;-78
2023/08/04 02:48:41;;;;;;;34.90;20.35;;;14.40;99.90;;;;;;5010337;28;20180;-78
2023/08/04 02:51:09;;;;;;;42.45;20.33;;;14.40;99.90;;;;;;5022418;28;20188;-78
2023/08/04 02:53:36;;;;;;;42.28;21.10;;;14.40;99.90;;;;;;5039132;28;20189;-78
2023/08/04 02:56:16;;;;;;;37.92;20.38;;;14.40;99.90;;;;;;5029228;28;20203;-78
2023/08/04 02:58:43;;;;;;;43.55;22.33;;;14.40;99.90;;;;;;5022541;28;20190;-77
2023/08/04 03:01:09;;;;;;;34.35;19.92;;;14.30;99.90;;;;;;5039841;28;20214;-78
2023/08/04 03:03:35;;;;;;;41.33;21.02;;;14.30;99.90;;;;;;5039907;28;20209;-78
2023/08/04 03:06:02;;;;;;;37.35;20.45;;;14.30;99.90;;;;;;5041366;28;20210;-78
2023/08/04 03:08:28;;;;;;;39.70;21.20;;;14.30;99.90;;;;;;5024545;28;20190;-78
2023/08/04 03:10:55;;;;;;;44.05;21.05;;;14.30;99.90;;;;;;5022905;28;20632;-78
2023/08/04 03:13:21;;;;;;;45.35;20.40;;;14.30;99.90;;;;;;5032951;28;20187;-78
2023/08/04 03:15:53;;;;;;;42.10;22.85;;;14.30;99.90;;;;;;5042833;28;20641;-79
2023/08/04 03:18:18;;;;;;;35.20;20.70;;;14.30;99.90;;;;;;5041863;28;20183;-78
2023/08/04 03:20:44;;;;;;;42.03;23.15;;;14.40;99.90;;;;;;5025226;28;20198;-78
2023/08/04 03:23:10;;;;;;;45.20;22.20;;;14.30;99.90;;;;;;5023951;28;20178;-78
2023/08/04 03:25:36;;;;;;;44.33;21.38;;;14.40;99.90;;;;;;5020701;28;20694;-78
2023/08/04 03:28:01;;;;;;;45.80;22.60;;;14.40;99.90;;;;;;5022533;28;20180;-78
2023/08/04 03:30:27;;;;;;;53.80;24.95;;;14.40;99.90;;;;;;5036958;28;20178;-79
2023/08/04 03:32:53;;;;;;;50.40;24.50;;;14.40;99.90;;;;;;5026364;28;20211;-78
2023/08/04 03:35:19;;;;;;;52.50;24.67;;;14.40;99.90;;;;;;5026562;28;20215;-77
2023/08/04 03:37:45;;;;;;;47.72;24.75;;;14.30;99.90;;;;;;5041573;28;20297;-77
2023/08/04 03:40:11;;;;;;;48.97;25.50;;;14.30;99.90;;;;;;5041299;28;20211;-77
2023/08/04 03:42:38;;;;;;;52.92;25.17;;;14.40;99.90;;;;;;5041461;28;20519;-79
2023/08/04 03:45:07;;;;;;;48.92;24.50;;;14.30;99.90;;;;;;5042144;28;20663;-77
2023/08/04 03:47:36;;;;;;;51.20;25.45;;;14.40;99.90;;;;;;5039575;28;20207;-78
2023/08/04 03:50:06;;;;;;;54.22;26.00;;;14.30;99.90;;;;;;5040599;28;20191;-78
2023/08/04 03:52:32;;;;;;;60.38;25.98;;;14.40;99.90;;;;;;5023044;28;20183;-78
2023/08/04 03:54:58;;;;;;;58.03;26.58;;;14.30;99.90;;;;;;5040147;28;20678;-77
2023/08/04 03:57:24;;;;;;;61.47;28.02;;;14.30;99.90;;;;;;5040815;28;20225;-78
2023/08/04 03:59:52;;;;;;;69.72;29.05;;;14.40;99.90;;;;;;5021363;28;20217;-79
2023/08/04 04:02:18;;;;;;;59.72;28.65;;;14.30;99.90;;;;;;5038010;28;20183;-77
2023/08/04 04:04:43;;;;;;;60.72;29.10;;;14.30;99.90;;;;;;5014151;28;20202;-78
2023/08/04 04:07:09;;;;;;;67.07;29.05;;;14.30;99.90;;;;;;5038427;28;20199;-77
2023/08/04 04:09:35;;;;;;;57.60;28.10;;;14.30;99.90;;;;;;5041811;28;20236;-78
2023/08/04 04:12:01;;;;;;;55.70;26.83;;;14.30;99.90;;;;;;5020454;28;20203;-78
2023/08/04 04:14:26;;;;;;;70.75;31.20;;;14.30;99.90;;;;;;5036624;28;20182;-78
2023/08/04 04:16:52;;;;;;;60.67;28.92;;;14.30;99.90;;;;;;5020163;28;20218;-78
2023/08/04 04:19:18;;;;;;;59.13;29.02;;;14.30;99.90;;;;;;5037838;28;20258;-78
2023/08/04 04:21:43;;;;;;;66.35;29.73;;;14.30;99.90;;;;;;5039196;28;20205;-78
2023/08/04 04:24:09;;;;;;;65.32;30.35;;;14.30;99.90;;;;;;5038090;28;20201;-78
2023/08/04 04:26:35;;;;;;;70.97;30.08;;;14.20;99.90;;;;;;5031437;28;20701;-78
2023/08/04 04:29:01;;;;;;;56.35;30.17;;;14.20;99.90;;;;;;5037907;28;20215;-77
2023/08/04 04:31:27;;;;;;;70.25;31.13;;;14.30;99.90;;;;;;5031546;28;20277;-78
2023/08/04 04:33:52;;;;;;;51.42;27.67;;;14.30;99.90;;;;;;5034573;28;20233;-77
2023/08/04 04:36:18;;;;;;;51.28;25.98;;;14.30;99.90;;;;;;5015344;28;20238;-78
2023/08/04 04:38:44;;;;;;;63.63;29.98;;;14.30;99.90;;;;;;5037308;28;20254;-78
2023/08/04 04:41:09;;;;;;;69.10;30.48;;;14.40;99.90;;;;;;5018599;28;20195;-78
2023/08/04 04:43:36;;;;;;;69.35;31.45;;;14.30;99.90;;;;;;5017337;28;20189;-78
2023/08/04 04:46:03;;;;;;;65.35;31.38;;;14.40;99.90;;;;;;5014651;28;20265;-78
2023/08/04 04:48:29;;;;;;;77.18;31.90;;;14.30;99.90;;;;;;5015271;28;20183;-78
2023/08/04 04:50:54;;;;;;;67.38;31.08;;;14.30;99.90;;;;;;5018909;28;20174;-78
2023/08/04 04:53:21;;;;;;;57.72;29.02;;;14.30;99.90;;;;;;5019293;28;20175;-77
2023/08/04 04:55:46;;;;;;;83.32;32.97;;;14.30;99.90;;;;;;5034690;28;20191;-78
2023/08/04 04:58:12;;;;;;;76.43;31.92;;;14.40;99.90;;;;;;5017901;28;20198;-78
2023/08/04 05:00:38;;;;;;;70.32;31.77;;;14.40;99.90;;;;;;5019034;28;20173;-78
2023/08/04 05:03:06;;;;;;;68.90;31.70;;;14.40;99.90;;;;;;5017294;28;20273;-77
2023/08/04 05:05:33;;;;;;;72.43;33.03;;;14.40;99.90;;;;;;5032668;28;20245;-78
2023/08/04 05:07:59;;;;;;;69.88;32.13;;;14.40;99.90;;;;;;5035948;28;20612;-78
2023/08/04 05:10:26;;;;;;;87.57;35.08;;;14.40;99.90;;;;;;5051573;28;20182;-78
2023/08/04 05:12:52;;;;;;;72.75;33.58;;;14.40;99.90;;;;;;5015243;28;20277;-78
2023/08/04 05:15:17;;;;;;;78.80;33.75;;;14.40;99.90;;;;;;5010766;28;20287;-78
2023/08/04 05:17:44;;;;;;;74.70;34.08;;;14.40;99.90;;;;;;5018284;28;20207;-78
2023/08/04 05:20:11;;;;;;;76.15;34.92;;;14.40;99.90;;;;;;5017469;28;20284;-78
2023/08/04 05:22:37;;;;;;;60.45;29.88;;;14.40;99.90;;;;;;5037932;28;20253;-78
2023/08/04 05:25:04;;;;;;;63.53;30.38;;;14.40;99.90;;;;;;5019647;28;20203;-78
2023/08/04 05:27:30;;;;;;;70.82;33.72;;;14.50;99.90;;;;;;5021572;28;20261;-78
2023/08/04 05:29:56;;;;;;;75.57;34.85;;;14.50;99.90;;;;;;5018436;28;20184;-78
2023/08/04 05:32:22;;;;;;;77.88;35.47;;;14.50;99.90;;;;;;5019220;28;20179;-78
2023/08/04 05:34:48;;;;;;;85.00;36.42;;;14.50;99.90;;;;;;5041023;28;20187;-78
2023/08/04 05:37:13;;;;;;;73.45;35.10;;;14.50;99.90;;;;;;5021771;28;20230;-78
2023/08/04 05:39:39;;;;;;;83.82;36.20;;;14.50;99.90;;;;;;5021709;28;20611;-78
2023/08/04 05:42:06;;;;;;;82.00;36.40;;;14.50;99.90;;;;;;5025830;28;20679;-78
2023/08/04 05:44:32;;;;;;;73.15;34.80;;;14.50;99.90;;;;;;5042263;28;20592;-78
2023/08/04 05:46:59;;;;;;;76.70;37.58;;;14.50;99.90;;;;;;5013416;28;20257;-78
2023/08/04 05:49:25;;;;;;;89.95;37.25;;;14.50;99.90;;;;;;5020985;28;20648;-78
2023/08/04 05:51:51;;;;;;;73.00;33.78;;;14.60;99.90;;;;;;5017048;28;20457;-79
2023/08/04 05:54:17;;;;;;;85.70;37.72;;;14.60;99.90;;;;;;5014548;28;20326;-80
2023/08/04 05:56:43;;;;;;;79.45;38.28;;;14.60;99.90;;;;;;5039596;28;20679;-79
2023/08/04 05:59:09;;;;;;;92.65;39.47;;;14.60;99.90;;;;;;5036699;28;20195;-79
2023/08/04 06:01:35;;;;;;;86.63;38.30;;;14.60;99.90;;;;;;5018620;28;20183;-79
2023/08/04 06:04:00;;;;;;;87.35;37.92;;;14.60;99.90;;;;;;5026164;28;20194;-79
2023/08/04 06:06:27;;;;;;;98.53;40.15;;;14.70;99.90;;;;;;5021260;28;20203;-79
2023/08/04 06:08:54;;;;;;;85.57;38.95;;;14.80;99.90;;;;;;5024703;28;20284;-79
2023/08/04 06:11:21;;;;;;;87.05;40.25;;;14.80;99.90;;;;;;5036887;28;20189;-79
2023/08/04 06:13:47;;;;;;;80.40;38.08;;;14.90;99.90;;;;;;5011582;28;20629;-79
2023/08/04 06:16:13;;;;;;;79.63;37.20;;;15.00;99.90;;;;;;5030659;28;20286;-79
2023/08/04 06:18:39;;;;;;;89.65;39.17;;;15.00;99.90;;;;;;5020788;28;20282;-80
2023/08/04 06:21:05;;;;;;;63.17;32.72;;;15.00;99.90;;;;;;5020731;28;20183;-79
2023/08/04 06:23:30;;;;;;;71.25;34.08;;;15.10;99.90;;;;;;5018541;28;20233;-79
2023/08/04 06:25:56;;;;;;;67.18;33.42;;;15.10;99.90;;;;;;4994485;28;20207;-79
2023/08/04 06:28:22;;;;;;;74.22;34.03;;;15.20;99.90;;;;;;5020013;28;20179;-79
2023/08/04 06:30:48;;;;;;;67.05;33.20;;;15.20;99.90;;;;;;5025310;28;20252;-79
2023/08/04 06:33:14;;;;;;;66.45;34.35;;;15.10;99.90;;;;;;5012741;28;20182;-79
2023/08/04 06:35:41;;;;;;;67.60;32.78;;;15.20;99.90;;;;;;5034675;28;20565;-79
2023/08/04 06:38:11;;;;;;;71.53;32.92;;;15.30;99.90;;;;;;5018319;28;20202;-79
2023/08/04 06:40:37;;;;;;;61.40;31.45;;;15.40;99.90;;;;;;5016462;28;20191;-80
2023/08/04 06:43:03;;;;;;;61.30;31.65;;;15.40;99.90;;;;;;5015669;28;20187;-79
2023/08/04 06:45:29;;;;;;;63.22;31.17;;;15.40;99.90;;;;;;5024580;28;20207;-79
2023/08/04 06:47:55;;;;;;;51.67;29.15;;;15.20;99.90;;;;;;5012820;28;20681;-79
2023/08/04 06:50:21;;;;;;;59.92;30.20;;;15.20;99.90;;;;;;5032807;28;20995;-79
2023/08/04 06:52:47;;;;;;;67.90;30.83;;;15.30;99.90;;;;;;5033133;28;20181;-79
2023/08/04 06:55:14;;;;;;;59.30;29.05;;;15.30;99.90;;;;;;5010583;28;20186;-77
2023/08/04 06:57:39;;;;;;;52.65;27.08;;;15.40;99.90;;;;;;5018107;28;20298;-78
2023/08/04 07:00:06;;;;;;;57.92;26.95;;;15.50;99.90;;;;;;5018800;28;20719;-77
2023/08/04 07:02:32;;;;;;;47.85;26.67;;;15.60;99.90;;;;;;5035877;28;20189;-78
2023/08/04 07:04:58;;;;;;;50.33;26.02;;;15.70;99.90;;;;;;5010490;28;20242;-77
2023/08/04 07:07:24;;;;;;;50.97;25.73;;;15.70;99.90;;;;;;5013013;28;20230;-77
2023/08/04 07:09:50;;;;;;;45.95;24.35;;;15.70;99.90;;;;;;5022589;28;20215;-77
2023/08/04 07:12:16;;;;;;;38.72;22.63;;;15.60;99.90;;;;;;5045011;28;20667;-77
2023/08/04 07:14:41;;;;;;;37.42;22.23;;;15.60;99.90;;;;;;5010108;28;20278;-77
2023/08/04 07:17:07;;;;;;;42.63;22.23;;;15.70;99.90;;;;;;5024337;28;20680;-77
2023/08/04 07:19:33;;;;;;;38.90;22.83;;;15.90;99.90;;;;;;5017713;28;20187;-77
2023/08/04 07:21:59;;;;;;;34.97;22.30;;;16.00;99.90;;;;;;5011416;28;20191;-77
2023/08/04 07:24:25;;;;;;;33.22;19.92;;;16.30;99.90;;;;;;5004519;28;20235;-78
2023/08/04 07:26:51;;;;;;;36.47;18.90;;;16.40;99.90;;;;;;5017914;28;20211;-78
2023/08/04 07:29:17;;;;;;;30.88;18.10;;;16.50;99.90;;;;;;5018863;28;20647;-78
2023/08/04 07:31:42;;;;;;;30.48;17.63;;;16.50;99.90;;;;;;5014332;28;20211;-77
2023/08/04 07:34:08;;;;;;;29.33;17.20;;;16.50;99.90;;;;;;5033553;28;20193;-77
2023/08/04 07:36:34;;;;;;;23.52;16.00;;;16.50;99.90;;;;;;5052324;28;20249;-77
2023/08/04 07:39:00;;;;;;;24.27;16.83;;;16.50;99.90;;;;;;5027683;28;20174;-78
2023/08/04 07:41:25;;;;;;;26.27;16.05;;;16.50;99.90;;;;;;5025696;28;20643;-77
2023/08/04 07:43:52;;;;;;;25.42;15.75;;;16.50;99.90;;;;;;5041321;28;20640;-77
2023/08/04 07:46:29;;;;;;;25.42;14.82;;;16.50;99.90;;;;;;5024665;28;20221;-78
2023/08/04 07:48:55;;;;;;;25.38;15.23;;;16.70;99.90;;;;;;5024705;28;20293;-77
2023/08/04 07:51:22;;;;;;;20.02;14.10;;;16.80;99.90;;;;;;5025061;28;20229;-77
2023/08/04 07:53:48;;;;;;;27.00;13.82;;;16.80;99.90;;;;;;5023660;28;20179;-77
2023/08/04 07:56:14;;;;;;;20.05;13.30;;;16.80;99.90;;;;;;5032688;28;20256;-77
2023/08/04 07:58:40;;;;;;;21.08;13.05;;;16.80;99.90;;;;;;5023482;28;20186;-77
2023/08/04 08:01:06;;;;;;;21.88;12.88;;;16.70;99.90;;;;;;5025865;28;20192;-78
2023/08/04 08:03:33;;;;;;;17.13;11.68;;;16.70;99.90;;;;;;5018040;28;20553;-77
2023/08/04 08:05:59;;;;;;;21.80;13.38;;;16.80;99.90;;;;;;5021118;28;20215;-77
2023/08/04 08:08:26;;;;;;;18.13;11.13;;;16.90;99.90;;;;;;5037439;28;20175;-77
2023/08/04 08:10:52;;;;;;;18.33;11.45;;;16.90;99.90;;;;;;5025482;28;20265;-77
2023/08/04 08:13:18;;;;;;;12.75;9.80;;;17.00;99.90;;;;;;5007684;28;20179;-77
2023/08/04 08:15:44;;;;;;;15.20;10.50;;;17.20;99.90;;;;;;5012356;28;20255;-77
2023/08/04 08:18:10;;;;;;;13.05;8.32;;;17.40;99.90;;;;;;5034093;28;20533;-76
2023/08/04 08:20:42;;;;;;;16.55;9.23;;;17.50;99.90;;;;;;5012784;28;20279;-77
2023/08/04 08:23:08;;;;;;;12.60;9.35;;;17.70;99.90;;;;;;4997052;28;20183;-76
2023/08/04 08:25:35;;;;;;;12.70;8.38;;;17.80;99.90;;;;;;5012090;28;20725;-77
2023/08/04 08:28:02;;;;;;;13.77;8.50;;;17.90;99.90;;;;;;5033428;28;20218;-77
2023/08/04 08:30:28;;;;;;;16.90;9.38;;;18.10;99.90;;;;;;5016718;28;20635;-77
2023/08/04 08:32:54;;;;;;;11.20;7.85;;;18.40;99.90;;;;;;5014680;28;20274;-77
2023/08/04 08:35:20;;;;;;;11.88;7.35;;;18.40;99.90;;;;;;5016349;28;20207;-77
2023/08/04 08:37:46;;;;;;;14.68;6.70;;;18.30;99.90;;;;;;5016539;28;20215;-77
2023/08/04 08:40:12;;;;;;;9.10;6.68;;;18.10;99.90;;;;;;5014979;28;20236;-77
2023/08/04 08:42:38;;;;;;;11.60;7.88;;;17.90;99.90;;;;;;5034046;28;20663;-77
2023/08/04 08:45:05;;;;;;;18.40;7.07;;;17.70;99.90;;;;;;5034487;28;20198;-76
2023/08/04 08:47:38;;;;;;;19.25;7.95;;;17.50;99.90;;;;;;5016474;28;20206;-79
2023/08/04 08:50:05;;;;;;;19.13;8.02;;;17.30;99.90;;;;;;5011796;28;20747;-79
2023/08/04 08:52:35;;;;;;;14.13;7.20;;;17.20;99.90;;;;;;5018740;28;20197;-77
2023/08/04 08:55:02;;;;;;;12.32;8.20;;;17.20;99.90;;;;;;5027278;28;20187;-78
2023/08/04 08:57:29;;;;;;;14.25;8.68;;;17.30;99.90;;;;;;5017665;28;20206;-78
2023/08/04 09:00:00;;;;;;;13.95;9.48;;;17.30;99.90;;;;;;5033329;28;20605;-78
2023/08/04 09:02:25;;;;;;;12.70;8.82;;;17.30;99.90;;;;;;5012041;28;20259;-78
2023/08/04 09:04:52;;;;;;;13.02;8.80;;;17.40;99.90;;;;;;5029187;28;20633;-78
2023/08/04 09:07:18;;;;;;;16.85;8.35;;;17.50;99.90;;;;;;5014926;28;20203;-78
2023/08/04 09:09:45;;;;;;;15.00;9.18;;;17.50;99.90;;;;;;5037619;28;20221;-78
2023/08/04 09:12:12;;;;;;;12.77;8.15;;;17.50;99.90;;;;;;5033293;28;20209;-77
2023/08/04 09:14:51;;;;;;;13.00;8.90;;;17.60;99.90;;;;;;5022940;28;20241;-78
2023/08/04 09:17:31;;;;;;;17.77;9.32;;;17.60;99.90;;;;;;5030596;28;20286;-79
2023/08/04 09:19:58;;;;;;;20.23;10.02;;;17.70;99.90;;;;;;5016518;28;20210;-77
2023/08/04 09:22:24;;;;;;;20.50;9.43;;;17.80;99.90;;;;;;5011136;28;20184;-77
2023/08/04 09:25:01;;;;;;;22.58;9.40;;;17.80;99.90;;;;;;5015414;28;20260;-77
2023/08/04 09:27:35;;;;;;;16.88;8.77;;;17.70;99.90;;;;;;5013798;28;20233;-77
2023/08/04 09:30:03;;;;;;;11.90;7.22;;;17.80;99.90;;;;;;5014165;28;20204;-78
2023/08/04 09:32:30;;;;;;;10.57;7.35;;;17.70;99.90;;;;;;5015156;28;20525;-78
2023/08/04 09:35:04;;;;;;;15.25;6.85;;;17.70;99.90;;;;;;5014101;28;20214;-79
2023/08/04 09:37:31;;;;;;;14.88;6.32;;;17.80;99.90;;;;;;5007674;28;20628;-77
2023/08/04 09:39:57;;;;;;;10.60;5.95;;;17.90;99.90;;;;;;4996015;28;20202;-77
2023/08/04 09:42:23;;;;;;;17.40;6.18;;;18.10;99.90;;;;;;5013742;28;20175;-77
2023/08/04 09:44:53;;;;;;;11.75;5.85;;;18.10;99.90;;;;;;4995766;28;20204;-77
2023/08/04 09:47:27;;;;;;;9.27;5.57;;;18.20;99.90;;;;;;5030481;28;20285;-77
2023/08/04 09:49:54;;;;;;;8.32;5.93;;;18.30;99.90;;;;;;5032743;28;20184;-78
2023/08/04 09:52:24;;;;;;;6.97;5.20;;;18.40;99.90;;;;;;5015365;28;20182;-76
2023/08/04 09:54:55;;;;;;;8.65;4.65;;;18.50;99.90;;;;;;5015934;28;20194;-77
2023/08/04 09:57:23;;;;;;;7.38;5.53;;;18.50;99.90;;;;;;5010593;28;20203;-78
2023/08/04 09:59:50;;;;;;;9.43;5.90;;;18.60;99.90;;;;;;5015144;28;20179;-78
2023/08/04 10:02:20;;;;;;;8.95;5.05;;;18.60;99.90;;;;;;5016457;28;20183;-77
2023/08/04 10:04:50;;;;;;;10.07;5.72;;;18.60;99.90;;;;;;5019017;28;20667;-77
2023/08/04 10:07:21;;;;;;;8.43;5.43;;;18.60;99.90;;;;;;5018233;28;20234;-77
2023/08/04 10:09:48;;;;;;;8.32;4.82;;;18.70;99.90;;;;;;5037161;28;20159;-77
2023/08/04 10:12:15;;;;;;;10.77;5.35;;;18.80;99.90;;;;;;5019251;28;20258;-76
2023/08/04 10:14:42;;;;;;;6.63;4.55;;;19.00;99.90;;;;;;5019014;28;20186;-77
2023/08/04 10:17:08;;;;;;;6.20;4.75;;;19.00;99.90;;;;;;5018643;28;20206;-77
2023/08/04 10:19:35;;;;;;;9.77;5.00;;;19.20;99.90;;;;;;5036682;28;20178;-77
2023/08/04 10:22:09;;;;;;;8.25;5.03;;;19.40;99.90;;;;;;5036935;28;20198;-76
2023/08/04 10:24:36;;;;;;;7.35;4.82;;;19.50;99.90;;;;;;5018681;28;20199;-77
2023/08/04 10:27:21;;;;;;;7.05;4.88;;;19.50;99.90;;;;;;5036825;28;20222;-77
2023/08/04 10:30:20;;;;;;;9.02;4.60;;;19.30;99.90;;;;;;5040108;28;20175;-76
2023/08/04 10:32:47;;;;;;;7.30;4.00;;;19.20;99.90;;;;;;4980286;28;20206;-76
2023/08/04 10:35:19;;;;;;;4.65;3.72;;;19.10;99.90;;;;;;5023095;28;20190;-77
2023/08/04 10:37:55;;;;;;;6.13;3.78;;;19.10;99.90;;;;;;5019482;28;20214;-76
2023/08/04 10:40:29;;;;;;;5.28;3.97;;;19.30;99.90;;;;;;5018710;28;20183;-76
2023/08/04 10:43:05;;;;;;;6.20;3.55;;;19.40;99.90;;;;;;5036339;28;20201;-76
2023/08/04 10:45:54;;;;;;;6.40;4.13;;;19.50;99.90;;;;;;5018508;28;20201;-76
2023/08/04 10:48:21;;;;;;;6.57;4.18;;;19.50;99.90;;;;;;5018664;28;20683;-77
2023/08/04 10:50:50;;;;;;;7.30;4.32;;;19.50;99.90;;;;;;5018910;28;20194;-77
2023/08/04 10:53:16;;;;;;;5.97;4.70;;;19.60;99.90;;;;;;5019930;28;20543;-77
2023/08/04 10:55:52;;;;;;;9.57;4.70;;;19.70;99.90;;;;;;5019276;28;20326;-77
2023/08/04 10:58:18;;;;;;;7.32;4.50;;;19.70;99.90;;;;;;5019690;28;20257;-76
2023/08/04 11:00:46;;;;;;;8.48;4.53;;;19.70;99.90;;;;;;5019117;28;20187;-75
2023/08/04 11:03:36;;;;;;;5.55;3.83;;;19.60;99.90;;;;;;5035622;28;20179;-77
2023/08/04 11:06:03;;;;;;;7.72;4.53;;;19.80;99.90;;;;;;5019934;28;20215;-77
2023/08/04 11:08:30;;;;;;;6.50;4.22;;;19.80;99.90;;;;;;5039275;28;20171;-76
2023/08/04 11:10:57;;;;;;;7.57;4.07;;;19.80;99.90;;;;;;5033777;28;20274;-76
2023/08/04 11:13:24;;;;;;;6.03;4.10;;;20.00;99.90;;;;;;5036701;28;20163;-76
2023/08/04 11:15:53;;;;;;;6.28;4.28;;;20.40;99.90;;;;;;5017959;28;20175;-76
2023/08/04 11:18:29;;;;;;;6.30;3.50;;;20.70;95.40;;;;;;5035292;28;20170;-76
2023/08/04 11:20:59;;;;;;;3.90;3.10;;;21.10;78.80;;;;;;5035383;28;20175;-76
2023/08/04 11:23:27;;;;;;;4.85;2.70;;;21.30;99.90;;;;;;5035685;28;20159;-76
2023/08/04 11:25:53;;;;;;;3.65;2.58;;;21.50;54.20;;;;;;5017513;28;20203;-76
2023/08/04 11:28:20;;;;;;;3.13;2.55;;;21.30;45.40;;;;;;5035310;28;20245;-76
2023/08/04 11:30:46;;;;;;;4.53;2.88;;;21.20;37.10;;;;;;5035192;28;20175;-75
2023/08/04 11:33:13;;;;;;;6.55;2.78;;;20.80;48.40;;;;;;5017305;28;20179;-76
2023/08/04 11:35:39;;;;;;;3.88;2.58;;;20.70;75.70;;;;;;5017421;28;20269;-76
2023/08/04 11:38:05;;;;;;;3.03;2.50;;;20.60;7.30;;;;;;5035102;28;20203;-76
2023/08/04 11:40:31;;;;;;;5.97;2.85;;;20.60;55.10;;;;;;5034962;28;20524;-76
2023/08/04 11:42:59;;;;;;;4.25;2.85;;;20.70;71.50;;;;;;5017216;28;20648;-76
2023/08/04 11:45:29;;;;;;;6.15;2.85;;;20.80;69.80;;;;;;5017368;28;20199;-76
2023/08/04 11:47:56;;;;;;;3.05;2.20;;;21.00;28.20;;;;;;5016975;28;20226;-76
2023/08/04 11:50:22;;;;;;;6.38;3.10;;;21.20;1.00;;;;;;5017299;28;20179;-76
2023/08/04 11:52:48;;;;;;;4.15;2.40;;;21.30;1.00;;;;;;5017109;28;20179;-76
2023/08/04 11:55:14;;;;;;;4.43;2.10;;;21.40;99.90;;;;;;5017011;28;20590;-75
2023/08/04 11:57:49;;;;;;;2.70;2.15;;;21.50;99.90;;;;;;5016984;28;20203;-76
2023/08/04 12:00:15;;;;;;;3.10;2.20;;;21.60;13.00;;;;;;5034720;28;20593;-76
2023/08/04 12:02:58;;;;;;;5.93;2.50;;;21.60;25.10;;;;;;5016686;28;20320;-76
2023/08/04 12:05:32;;;;;;;3.38;2.00;;;21.40;99.90;;;;;;5016739;28;20670;-76
2023/08/04 12:07:59;;;;;;;4.72;2.45;;;21.40;1.00;;;;;;5034649;28;20628;-76
2023/08/04 12:10:26;;;;;;;2.97;2.40;;;21.40;1.00;;;;;;5034481;28;20198;-76
2023/08/04 12:12:52;;;;;;;4.90;2.50;;;21.80;1.00;;;;;;5034634;28;20175;-76
2023/08/04 12:15:18;;;;;;;4.22;2.40;;;22.00;1.00;;;;;;5034450;28;20171;-76
2023/08/04 12:17:44;;;;;;;4.72;2.53;;;22.30;1.00;;;;;;5016326;28;20206;-76
2023/08/04 12:20:12;;;;;;;6.10;2.50;;;22.40;1.00;;;;;;5034686;28;20650;-76
2023/08/04 12:22:40;;;;;;;4.85;2.22;;;22.50;1.00;;;;;;5016492;28;20175;-76
2023/08/04 12:25:07;;;;;;;5.93;2.70;;;22.30;1.00;;;;;;5016120;28;20225;-75
2023/08/04 12:27:33;;;;;;;4.82;2.65;;;21.90;1.00;;;;;;5034152;28;20191;-76
2023/08/04 12:29:59;;;;;;;3.92;2.50;;;21.60;1.00;;;;;;5016556;28;20591;-76
2023/08/04 12:32:25;;;;;;;5.13;2.25;;;21.70;1.00;;;;;;5017084;28;20175;-75